sensor_id;sensor_type;location;lat;lon;timestamp;pressure;altitude;pressure_sealevel;temperature;humidity
7168;BME280;3625;51.762;14.320;2024-03-07T00:01:18;101647.88;;;6.27;100.00
7168;BME280;3625;51.762;14.320;2024-03-07T00:03:50;101647.84;;;6.24;100.00
7168;BME280;3625;51.762;14.320;2024-03-07T00:06:20;101647.06;;;6.29;100.00
7168;BME280;3625;51.762;14.320;2024-03-07T00:08:50;101650.53;;;6.28;100.00
7168;BME280;3625;51.762;14.320;2024-03-07T00:11:19;101652.28;;;6.28;100.00
7168;BME280;3625;51.762;14.320;2024-03-07T00:13:48;101651.38;;;6.26;100.00
7168;BME280;3625;51.762;14.320;2024-03-07T00:16:17;101655.78;;;6.27;100.00
7168;BME280;3625;51.762;14.320;2024-03-07T00:18:46;101648.81;;;6.32;100.00
7168;BME280;3625;51.762;14.320;2024-03-07T00:21:15;101654.19;;;6.38;100.00
7168;BME280;3625;51.762;14.320;2024-03-07T00:23:46;101657.69;;;6.37;100.00
7168;BME280;3625;51.762;14.320;2024-03-07T00:26:16;101654.09;;;6.33;100.00
7168;BME280;3625;51.762;14.320;2024-03-07T00:28:45;101657.59;;;6.32;100.00
7168;BME280;3625;51.762;14.320;2024-03-07T00:31:14;101660.22;;;6.31;100.00
7168;BME280;3625;51.762;14.320;2024-03-07T00:33:43;101654.97;;;6.32;100.00
7168;BME280;3625;51.762;14.320;2024-03-07T00:36:31;101651.41;;;6.27;100.00
7168;BME280;3625;51.762;14.320;2024-03-07T00:39:02;101646.19;;;6.32;100.00
7168;BME280;3625;51.762;14.320;2024-03-07T00:41:32;101647.09;;;6.34;100.00
7168;BME280;3625;51.762;14.320;2024-03-07T00:44:00;101656.81;;;6.38;100.00
7168;BME280;3625;51.762;14.320;2024-03-07T00:46:29;101650.66;;;6.36;100.00
7168;BME280;3625;51.762;14.320;2024-03-07T00:48:58;101651.56;;;6.38;100.00
7168;BME280;3625;51.762;14.320;2024-03-07T00:51:27;101655.06;;;6.38;100.00
7168;BME280;3625;51.762;14.320;2024-03-07T00:53:57;101656.84;;;6.41;100.00
7168;BME280;3625;51.762;14.320;2024-03-07T00:56:28;101648.97;;;6.42;100.00
7168;BME280;3625;51.762;14.320;2024-03-07T00:58:57;101649.88;;;6.43;100.00
7168;BME280;3625;51.762;14.320;2024-03-07T01:01:26;101648.06;;;6.40;100.00
7168;BME280;3625;51.762;14.320;2024-03-07T01:03:55;101651.59;;;6.42;100.00
7168;BME280;3625;51.762;14.320;2024-03-07T01:06:24;101648.00;;;6.34;100.00
7168;BME280;3625;51.762;14.320;2024-03-07T01:08:53;101645.38;;;6.36;100.00
7168;BME280;3625;51.762;14.320;2024-03-07T01:11:22;101646.25;;;6.35;100.00
7168;BME280;3625;51.762;14.320;2024-03-07T01:13:52;101655.06;;;6.38;100.00
7168;BME280;3625;51.762;14.320;2024-03-07T01:16:21;101646.97;;;6.25;100.00
7168;BME280;3625;51.762;14.320;2024-03-07T01:18:50;101643.44;;;6.23;100.00
7168;BME280;3625;51.762;14.320;2024-03-07T01:21:19;101638.97;;;6.16;100.00
7168;BME280;3625;51.762;14.320;2024-03-07T01:23:47;101638.84;;;6.08;100.00
7168;BME280;3625;51.762;14.320;2024-03-07T01:26:16;101642.31;;;6.05;100.00
7168;BME280;3625;51.762;14.320;2024-03-07T01:28:46;101642.22;;;5.99;100.00
7168;BME280;3625;51.762;14.320;2024-03-07T01:31:16;101641.31;;;5.96;100.00
7168;BME280;3625;51.762;14.320;2024-03-07T01:33:45;101644.66;;;5.89;100.00
7168;BME280;3625;51.762;14.320;2024-03-07T01:36:14;101648.00;;;5.80;100.00
7168;BME280;3625;51.762;14.320;2024-03-07T01:38:43;101650.47;;;5.71;100.00
7168;BME280;3625;51.762;14.320;2024-03-07T01:41:12;101645.06;;;5.60;100.00
7168;BME280;3625;51.762;14.320;2024-03-07T01:43:42;101643.16;;;5.52;100.00
7168;BME280;3625;51.762;14.320;2024-03-07T01:46:11;101647.16;;;5.31;100.00
7168;BME280;3625;51.762;14.320;2024-03-07T01:48:43;101645.16;;;5.17;100.00
7168;BME280;3625;51.762;14.320;2024-03-07T01:51:12;101646.59;;;5.01;100.00
7168;BME280;3625;51.762;14.320;2024-03-07T01:53:41;101639.38;;;4.89;100.00
7168;BME280;3625;51.762;14.320;2024-03-07T01:56:10;101639.22;;;4.82;100.00
7168;BME280;3625;51.762;14.320;2024-03-07T01:58:39;101640.78;;;4.72;100.00
7168;BME280;3625;51.762;14.320;2024-03-07T02:01:10;101639.78;;;4.67;100.00
7168;BME280;3625;51.762;14.320;2024-03-07T02:03:43;101639.63;;;4.60;100.00
7168;BME280;3625;51.762;14.320;2024-03-07T02:06:12;101640.41;;;4.55;100.00
7168;BME280;3625;51.762;14.320;2024-03-07T02:08:42;101635.06;;;4.51;100.00
7168;BME280;3625;51.762;14.320;2024-03-07T02:11:11;101635.88;;;4.47;100.00
7168;BME280;3625;51.762;14.320;2024-03-07T02:13:41;101637.56;;;4.45;100.00
7168;BME280;3625;51.762;14.320;2024-03-07T02:16:09;101567.59;;;4.00;100.00
7168;BME280;3625;51.762;14.320;2024-03-07T02:18:38;101636.56;;;4.38;100.00
7168;BME280;3625;51.762;14.320;2024-03-07T02:21:09;101633.91;;;4.37;100.00
7168;BME280;3625;51.762;14.320;2024-03-07T02:23:39;101634.66;;;4.31;100.00
7168;BME280;3625;51.762;14.320;2024-03-07T02:26:08;101627.44;;;4.21;100.00
7168;BME280;3625;51.762;14.320;2024-03-07T02:28:37;101632.50;;;4.13;100.00
7168;BME280;3625;51.762;14.320;2024-03-07T02:31:06;101627.19;;;4.10;100.00
7168;BME280;3625;51.762;14.320;2024-03-07T02:33:35;101630.41;;;3.99;100.00
7168;BME280;3625;51.762;14.320;2024-03-07T02:36:04;101625.78;;;3.87;100.00
7168;BME280;3625;51.762;14.320;2024-03-07T02:38:35;101624.84;;;3.85;100.00
7168;BME280;3625;51.762;14.320;2024-03-07T02:41:04;101630.81;;;3.78;100.00
7168;BME280;3625;51.762;14.320;2024-03-07T02:43:33;101622.72;;;3.69;100.00
7168;BME280;3625;51.762;14.320;2024-03-07T02:46:05;101626.94;;;3.62;100.00
7168;BME280;3625;51.762;14.320;2024-03-07T02:48:34;101628.66;;;3.62;100.00
7168;BME280;3625;51.762;14.320;2024-03-07T02:51:04;101626.84;;;3.59;100.00
7168;BME280;3625;51.762;14.320;2024-03-07T02:53:35;101632.00;;;3.56;100.00
7168;BME280;3625;51.762;14.320;2024-03-07T02:56:06;101631.00;;;3.51;100.00
7168;BME280;3625;51.762;14.320;2024-03-07T02:58:37;101629.13;;;3.46;100.00
7168;BME280;3625;51.762;14.320;2024-03-07T03:01:07;101634.13;;;3.36;100.00
7168;BME280;3625;51.762;14.320;2024-03-07T03:03:35;101631.59;;;3.41;100.00
7168;BME280;3625;51.762;14.320;2024-03-07T03:06:05;101627.88;;;3.31;100.00
7168;BME280;3625;51.762;14.320;2024-03-07T03:08:37;101636.31;;;3.21;100.00
7168;BME280;3625;51.762;14.320;2024-03-07T03:11:06;101634.44;;;3.16;100.00
7168;BME280;3625;51.762;14.320;2024-03-07T03:13:38;101646.53;;;3.12;100.00
7168;BME280;3625;51.762;14.320;2024-03-07T03:16:06;101638.63;;;3.09;100.00
7168;BME280;3625;51.762;14.320;2024-03-07T03:18:36;101636.84;;;3.08;100.00
7168;BME280;3625;51.762;14.320;2024-03-07T03:21:05;101637.56;;;3.02;100.00
7168;BME280;3625;51.762;14.320;2024-03-07T03:23:36;101642.44;;;2.90;100.00
7168;BME280;3625;51.762;14.320;2024-03-07T03:26:05;101638.84;;;2.87;100.00
7168;BME280;3625;51.762;14.320;2024-03-07T03:28:34;101644.28;;;2.94;100.00
7168;BME280;3625;51.762;14.320;2024-03-07T03:31:03;101639.59;;;2.81;100.00
7168;BME280;3625;51.762;14.320;2024-03-07T03:33:32;101646.31;;;2.73;100.00
7168;BME280;3625;51.762;14.320;2024-03-07T03:36:01;101646.41;;;2.76;100.00
7168;BME280;3625;51.762;14.320;2024-03-07T03:38:31;101643.72;;;2.73;100.00
7168;BME280;3625;51.762;14.320;2024-03-07T03:41:01;101641.09;;;2.73;100.00
7168;BME280;3625;51.762;14.320;2024-03-07T03:43:32;101642.78;;;2.71;100.00
7168;BME280;3625;51.762;14.320;2024-03-07T03:46:01;101644.28;;;2.63;100.00
7168;BME280;3625;51.762;14.320;2024-03-07T03:48:30;101650.16;;;2.56;100.00
7168;BME280;3625;51.762;14.320;2024-03-07T03:51:01;101651.16;;;2.59;100.00
7168;BME280;3625;51.762;14.320;2024-03-07T03:53:30;101646.84;;;2.61;100.00
7168;BME280;3625;51.762;14.320;2024-03-07T03:55:59;101647.56;;;2.56;100.00
7168;BME280;3625;51.762;14.320;2024-03-07T03:58:29;101647.66;;;2.59;100.00
7168;BME280;3625;51.762;14.320;2024-03-07T04:00:58;101652.94;;;2.62;100.00
7168;BME280;3625;51.762;14.320;2024-03-07T04:03:27;101655.66;;;2.65;100.00
7168;BME280;3625;51.762;14.320;2024-03-07T04:05:57;101644.19;;;2.60;100.00
7168;BME280;3625;51.762;14.320;2024-03-07T04:08:26;101655.41;;;2.56;100.00
7168;BME280;3625;51.762;14.320;2024-03-07T04:10:55;101650.00;;;2.50;100.00
7168;BME280;3625;51.762;14.320;2024-03-07T04:13:24;101656.72;;;2.42;100.00
7168;BME280;3625;51.762;14.320;2024-03-07T04:15:54;101649.50;;;2.33;100.00
7168;BME280;3625;51.762;14.320;2024-03-07T04:18:23;101646.72;;;2.28;100.00
7168;BME280;3625;51.762;14.320;2024-03-07T04:20:54;101649.50;;;2.33;100.00
7168;BME280;3625;51.762;14.320;2024-03-07T04:23:23;101650.19;;;2.27;100.00
7168;BME280;3625;51.762;14.320;2024-03-07T04:25:52;101647.56;;;2.27;100.00
7168;BME280;3625;51.762;14.320;2024-03-07T04:28:21;101658.84;;;2.26;100.00
7168;BME280;3625;51.762;14.320;2024-03-07T04:30:50;101655.22;;;2.21;100.00
7168;BME280;3625;51.762;14.320;2024-03-07T04:33:22;101648.94;;;2.15;100.00
7168;BME280;3625;51.762;14.320;2024-03-07T04:35:54;101656.00;;;2.19;100.00
7168;BME280;3625;51.762;14.320;2024-03-07T04:38:22;101658.56;;;2.17;100.00
7168;BME280;3625;51.762;14.320;2024-03-07T04:40:52;101657.44;;;2.09;100.00
7168;BME280;3625;51.762;14.320;2024-03-07T04:43:21;101660.81;;;2.05;100.00
7168;BME280;3625;51.762;14.320;2024-03-07T04:45:50;101662.59;;;2.08;100.00
7168;BME280;3625;51.762;14.320;2024-03-07T04:48:20;101657.97;;;1.99;100.00
7168;BME280;3625;51.762;14.320;2024-03-07T04:50:50;101628.38;;;1.70;100.00
7168;BME280;3625;51.762;14.320;2024-03-07T04:53:18;101665.38;;;1.85;100.00
7168;BME280;3625;51.762;14.320;2024-03-07T04:55:47;101670.34;;;1.78;100.00
7168;BME280;3625;51.762;14.320;2024-03-07T04:58:16;101674.63;;;1.76;100.00
7168;BME280;3625;51.762;14.320;2024-03-07T05:00:45;101671.00;;;1.71;100.00
7168;BME280;3625;51.762;14.320;2024-03-07T05:03:13;101678.00;;;1.72;100.00
7168;BME280;3625;51.762;14.320;2024-03-07T05:05:44;101678.88;;;1.72;100.00
7168;BME280;3625;51.762;14.320;2024-03-07T05:08:13;101677.09;;;1.71;100.00
7168;BME280;3625;51.762;14.320;2024-03-07T05:10:42;101671.84;;;1.70;100.00
7168;BME280;3625;51.762;14.320;2024-03-07T05:13:11;101679.47;;;1.64;100.00
7168;BME280;3625;51.762;14.320;2024-03-07T05:15:43;101681.22;;;1.65;100.00
7168;BME280;3625;51.762;14.320;2024-03-07T05:18:12;101683.72;;;1.62;100.00
7168;BME280;3625;51.762;14.320;2024-03-07T05:20:43;101684.75;;;1.67;100.00
7168;BME280;3625;51.762;14.320;2024-03-07T05:23:12;101689.78;;;1.61;100.00
7168;BME280;3625;51.762;14.320;2024-03-07T05:25:44;101690.34;;;1.52;100.00
7168;BME280;3625;51.762;14.320;2024-03-07T05:28:13;101686.81;;;1.50;100.00
7168;BME280;3625;51.762;14.320;2024-03-07T05:30:42;101684.13;;;1.48;100.00
7168;BME280;3625;51.762;14.320;2024-03-07T05:33:11;101687.81;;;1.54;100.00
7168;BME280;3625;51.762;14.320;2024-03-07T05:35:40;101685.13;;;1.52;100.00
7168;BME280;3625;51.762;14.320;2024-03-07T05:38:12;101687.56;;;1.47;100.00
7168;BME280;3625;51.762;14.320;2024-03-07T05:40:41;101692.66;;;1.43;100.00
7168;BME280;3625;51.762;14.320;2024-03-07T05:43:11;101697.03;;;1.44;100.00
7168;BME280;3625;51.762;14.320;2024-03-07T05:45:41;101698.63;;;1.40;100.00
7168;BME280;3625;51.762;14.320;2024-03-07T05:48:15;101692.50;;;1.38;100.00
7168;BME280;3625;51.762;14.320;2024-03-07T05:50:45;101701.09;;;1.36;100.00
7168;BME280;3625;51.762;14.320;2024-03-07T05:53:15;101700.03;;;1.31;100.00
7168;BME280;3625;51.762;14.320;2024-03-07T05:55:45;101690.50;;;1.31;100.00
7168;BME280;3625;51.762;14.320;2024-03-07T05:58:15;101698.50;;;1.36;100.00
7168;BME280;3625;51.762;14.320;2024-03-07T06:00:44;101694.09;;;1.35;100.00
7168;BME280;3625;51.762;14.320;2024-03-07T06:03:17;101700.41;;;1.41;100.00
7168;BME280;3625;51.762;14.320;2024-03-07T06:05:47;101697.91;;;1.44;100.00
7168;BME280;3625;51.762;14.320;2024-03-07T06:08:18;101704.09;;;1.46;100.00
7168;BME280;3625;51.762;14.320;2024-03-07T06:10:47;101699.00;;;1.51;100.00
7168;BME280;3625;51.762;14.320;2024-03-07T06:13:18;101708.50;;;1.49;100.00
7168;BME280;3625;51.762;14.320;2024-03-07T06:15:47;101709.38;;;1.49;100.00
7168;BME280;3625;51.762;14.320;2024-03-07T06:18:16;101708.56;;;1.50;100.00
7168;BME280;3625;51.762;14.320;2024-03-07T06:20:45;101715.75;;;1.58;100.00
7168;BME280;3625;51.762;14.320;2024-03-07T06:23:16;101721.28;;;1.67;100.00
7168;BME280;3625;51.762;14.320;2024-03-07T06:25:46;101713.69;;;1.74;100.00
7168;BME280;3625;51.762;14.320;2024-03-07T06:28:18;101713.00;;;1.78;100.00
7168;BME280;3625;51.762;14.320;2024-03-07T06:30:47;101711.97;;;1.75;100.00
7168;BME280;3625;51.762;14.320;2024-03-07T06:33:16;101720.94;;;1.81;100.00
7168;BME280;3625;51.762;14.320;2024-03-07T06:35:50;101724.63;;;1.88;100.00
7168;BME280;3625;51.762;14.320;2024-03-07T06:38:20;101717.94;;;1.96;100.00
7168;BME280;3625;51.762;14.320;2024-03-07T06:40:50;101725.94;;;2.02;100.00
7168;BME280;3625;51.762;14.320;2024-03-07T06:43:20;101727.72;;;2.03;100.00
7168;BME280;3625;51.762;14.320;2024-03-07T06:45:49;101727.59;;;1.99;100.00
7168;BME280;3625;51.762;14.320;2024-03-07T06:48:17;101725.13;;;2.03;100.00
7168;BME280;3625;51.762;14.320;2024-03-07T06:50:47;101729.63;;;2.09;100.00
7168;BME280;3625;51.762;14.320;2024-03-07T06:53:16;101729.56;;;2.06;100.00
7168;BME280;3625;51.762;14.320;2024-03-07T06:55:46;101734.91;;;2.10;100.00
7168;BME280;3625;51.762;14.320;2024-03-07T06:58:16;101729.81;;;2.13;100.00
7168;BME280;3625;51.762;14.320;2024-03-07T07:00:45;101730.81;;;2.18;100.00
7168;BME280;3625;51.762;14.320;2024-03-07T07:03:14;101733.50;;;2.20;100.00
7168;BME280;3625;51.762;14.320;2024-03-07T07:05:43;101741.50;;;2.26;100.00
7168;BME280;3625;51.762;14.320;2024-03-07T07:08:12;101742.50;;;2.30;100.00
7168;BME280;3625;51.762;14.320;2024-03-07T07:10:42;101746.25;;;2.38;100.00
7168;BME280;3625;51.762;14.320;2024-03-07T07:13:12;101746.34;;;2.41;100.00
7168;BME280;3625;51.762;14.320;2024-03-07T07:15:41;101747.31;;;2.44;100.00
7168;BME280;3625;51.762;14.320;2024-03-07T07:18:11;101741.41;;;2.50;100.00
7168;BME280;3625;51.762;14.320;2024-03-07T07:20:41;101738.81;;;2.50;100.00
7168;BME280;3625;51.762;14.320;2024-03-07T07:23:11;101740.72;;;2.55;100.00
7168;BME280;3625;51.762;14.320;2024-03-07T07:25:40;101747.94;;;2.64;100.00
7168;BME280;3625;51.762;14.320;2024-03-07T07:28:09;101752.69;;;2.77;100.00
7168;BME280;3625;51.762;14.320;2024-03-07T07:30:40;101750.94;;;2.76;100.00
7168;BME280;3625;51.762;14.320;2024-03-07T07:33:12;101748.66;;;2.60;100.00
7168;BME280;3625;51.762;14.320;2024-03-07T07:35:41;101746.81;;;2.56;100.00
7168;BME280;3625;51.762;14.320;2024-03-07T07:38:11;101755.44;;;2.53;100.00
7168;BME280;3625;51.762;14.320;2024-03-07T07:40:43;101749.09;;;2.45;100.00
7168;BME280;3625;51.762;14.320;2024-03-07T07:43:12;101756.78;;;2.68;100.00
7168;BME280;3625;51.762;14.320;2024-03-07T07:45:57;101768.50;;;3.10;100.00
7168;BME280;3625;51.762;14.320;2024-03-07T07:48:26;101760.81;;;3.48;100.00
7168;BME280;3625;51.762;14.320;2024-03-07T07:50:55;101761.41;;;3.69;100.00
7168;BME280;3625;51.762;14.320;2024-03-07T07:53:25;101757.03;;;3.68;100.00
7168;BME280;3625;51.762;14.320;2024-03-07T07:55:53;101754.25;;;3.95;100.00
7168;BME280;3625;51.762;14.320;2024-03-07T07:58:22;101762.25;;;4.01;100.00
7168;BME280;3625;51.762;14.320;2024-03-07T08:00:51;101762.78;;;4.22;100.00
7168;BME280;3625;51.762;14.320;2024-03-07T08:03:21;101761.19;;;4.29;100.00
7168;BME280;3625;51.762;14.320;2024-03-07T08:05:50;101765.28;;;4.17;100.00
7168;BME280;3625;51.762;14.320;2024-03-07T08:08:19;101764.81;;;4.34;100.00
7168;BME280;3625;51.762;14.320;2024-03-07T08:10:49;101774.13;;;4.21;100.00
7168;BME280;3625;51.762;14.320;2024-03-07T08:13:18;101765.59;;;4.30;100.00
7168;BME280;3625;51.762;14.320;2024-03-07T08:15:47;101765.38;;;4.57;100.00
7168;BME280;3625;51.762;14.320;2024-03-07T08:18:16;101773.84;;;4.46;100.00
7168;BME280;3625;51.762;14.320;2024-03-07T08:20:46;101774.22;;;4.26;100.00
7168;BME280;3625;51.762;14.320;2024-03-07T08:23:16;101765.25;;;4.52;100.00
7168;BME280;3625;51.762;14.320;2024-03-07T08:25:45;101770.22;;;4.79;100.00
7168;BME280;3625;51.762;14.320;2024-03-07T08:28:16;101770.66;;;4.58;100.00
7168;BME280;3625;51.762;14.320;2024-03-07T08:30:45;101771.63;;;4.63;100.00
7168;BME280;3625;51.762;14.320;2024-03-07T08:33:15;101770.22;;;4.79;100.00
7168;BME280;3625;51.762;14.320;2024-03-07T08:35:45;101765.19;;;4.88;100.00
7168;BME280;3625;51.762;14.320;2024-03-07T08:38:14;101765.09;;;4.46;100.00
7168;BME280;3625;51.762;14.320;2024-03-07T08:40:43;101766.16;;;4.18;100.00
7168;BME280;3625;51.762;14.320;2024-03-07T08:43:12;101760.84;;;4.13;100.00
7168;BME280;3625;51.762;14.320;2024-03-07T08:45:41;101766.69;;;4.03;100.00
7168;BME280;3625;51.762;14.320;2024-03-07T08:48:10;101763.75;;;3.91;100.00
7168;BME280;3625;51.762;14.320;2024-03-07T08:50:41;101764.22;;;4.09;100.00
7168;BME280;3625;51.762;14.320;2024-03-07T08:53:11;101764.75;;;4.31;100.00
7168;BME280;3625;51.762;14.320;2024-03-07T08:55:40;101763.91;;;4.32;100.00
7168;BME280;3625;51.762;14.320;2024-03-07T08:58:09;101765.88;;;4.42;100.00
7168;BME280;3625;51.762;14.320;2024-03-07T09:00:39;101774.22;;;4.26;100.00
7168;BME280;3625;51.762;14.320;2024-03-07T09:03:07;101768.53;;;4.43;100.00
7168;BME280;3625;51.762;14.320;2024-03-07T09:05:40;101762.78;;;4.58;100.00
7168;BME280;3625;51.762;14.320;2024-03-07T09:08:12;101763.56;;;4.54;100.00
7168;BME280;3625;51.762;14.320;2024-03-07T09:10:41;101757.56;;;4.60;100.00
7168;BME280;3625;51.762;14.320;2024-03-07T09:13:10;101766.63;;;4.74;100.00
7168;BME280;3625;51.762;14.320;2024-03-07T09:15:39;101765.00;;;4.79;100.00
7168;BME280;3625;51.762;14.320;2024-03-07T09:18:09;101759.94;;;4.88;100.00
7168;BME280;3625;51.762;14.320;2024-03-07T09:20:38;101761.06;;;4.99;100.00
7168;BME280;3625;51.762;14.320;2024-03-07T09:23:10;101771.75;;;5.08;100.00
7168;BME280;3625;51.762;14.320;2024-03-07T09:25:39;101770.09;;;5.13;100.00
7168;BME280;3625;51.762;14.320;2024-03-07T09:28:08;101763.16;;;5.15;100.00
7168;BME280;3625;51.762;14.320;2024-03-07T09:30:38;101759.69;;;5.16;100.00
7168;BME280;3625;51.762;14.320;2024-03-07T09:33:07;101752.03;;;5.28;100.00
7168;BME280;3625;51.762;14.320;2024-03-07T09:35:39;101751.41;;;5.40;100.00
7168;BME280;3625;51.762;14.320;2024-03-07T09:38:10;101751.63;;;5.51;100.00
7168;BME280;3625;51.762;14.320;2024-03-07T09:40:39;101744.91;;;5.66;100.00
7168;BME280;3625;51.762;14.320;2024-03-07T09:43:08;101746.78;;;5.74;100.00
7168;BME280;3625;51.762;14.320;2024-03-07T09:45:39;101749.41;;;5.74;100.00
7168;BME280;3625;51.762;14.320;2024-03-07T09:48:14;101747.91;;;5.86;100.00
7168;BME280;3625;51.762;14.320;2024-03-07T09:50:46;101754.72;;;5.75;95.56
7168;BME280;3625;51.762;14.320;2024-03-07T09:53:21;101758.56;;;5.92;99.26
7168;BME280;3625;51.762;14.320;2024-03-07T09:55:53;101760.91;;;5.80;87.69
7168;BME280;3625;51.762;14.320;2024-03-07T09:58:22;101752.16;;;5.78;88.41
7168;BME280;3625;51.762;14.320;2024-03-07T10:00:54;101755.06;;;5.93;92.49
7168;BME280;3625;51.762;14.320;2024-03-07T10:03:29;101758.00;;;6.12;85.50
7168;BME280;3625;51.762;14.320;2024-03-07T10:05:58;101749.41;;;6.20;88.33
7168;BME280;3625;51.762;14.320;2024-03-07T10:08:29;101756.06;;;6.54;83.51
7168;BME280;3625;51.762;14.320;2024-03-07T10:10:59;101758.00;;;6.67;78.20
7168;BME280;3625;51.762;14.320;2024-03-07T10:13:28;101760.69;;;6.70;70.98
7168;BME280;3625;51.762;14.320;2024-03-07T10:15:57;101765.59;;;7.08;70.02
7168;BME280;3625;51.762;14.320;2024-03-07T10:18:28;101764.94;;;7.24;68.43
7168;BME280;3625;51.762;14.320;2024-03-07T10:20:57;101770.59;;;7.57;59.53
7168;BME280;3625;51.762;14.320;2024-03-07T10:23:29;101763.03;;;7.91;60.81
7168;BME280;3625;51.762;14.320;2024-03-07T10:25:58;101758.16;;;8.33;59.87
7168;BME280;3625;51.762;14.320;2024-03-07T10:28:27;101764.84;;;7.98;56.10
7168;BME280;3625;51.762;14.320;2024-03-07T10:30:55;101757.16;;;8.21;57.04
7168;BME280;3625;51.762;14.320;2024-03-07T10:33:27;101760.31;;;8.95;56.09
7168;BME280;3625;51.762;14.320;2024-03-07T10:36:00;101764.03;;;9.32;54.01
7168;BME280;3625;51.762;14.320;2024-03-07T10:38:31;101752.63;;;9.47;53.75
7168;BME280;3625;51.762;14.320;2024-03-07T10:41:04;101770.94;;;9.11;52.13
7168;BME280;3625;51.762;14.320;2024-03-07T10:43:36;101761.34;;;9.25;53.04
7168;BME280;3625;51.762;14.320;2024-03-07T10:46:11;101752.09;;;8.44;52.42
7168;BME280;3625;51.762;14.320;2024-03-07T10:48:40;101748.50;;;8.34;54.86
7168;BME280;3625;51.762;14.320;2024-03-07T10:51:20;101752.78;;;8.24;55.66
7168;BME280;3625;51.762;14.320;2024-03-07T10:54:08;101754.66;;;8.35;56.35
7168;BME280;3625;51.762;14.320;2024-03-07T10:56:52;101758.22;;;7.50;56.05
7168;BME280;3625;51.762;14.320;2024-03-07T10:59:26;101740.41;;;7.30;59.07
7168;BME280;3625;51.762;14.320;2024-03-07T11:02:15;101747.25;;;7.97;58.08
7168;BME280;3625;51.762;14.320;2024-03-07T11:04:49;101734.59;;;7.58;56.88
7168;BME280;3625;51.762;14.320;2024-03-07T11:07:20;101736.44;;;7.67;58.30
7168;BME280;3625;51.762;14.320;2024-03-07T11:09:52;101670.66;;;6.90;56.82
7168;BME280;3625;51.762;14.320;2024-03-07T11:12:24;101737.50;;;7.07;59.26
7168;BME280;3625;51.762;14.320;2024-03-07T11:14:56;101739.19;;;7.02;60.93
7168;BME280;3625;51.762;14.320;2024-03-07T11:17:26;101730.53;;;7.12;60.42
7168;BME280;3625;51.762;14.320;2024-03-07T11:20:19;101729.75;;;7.19;60.82
7168;BME280;3625;51.762;14.320;2024-03-07T11:22:48;101729.63;;;7.10;60.24
7168;BME280;3625;51.762;14.320;2024-03-07T11:25:20;101731.19;;;6.94;60.60
7168;BME280;3625;51.762;14.320;2024-03-07T11:27:55;101731.69;;;6.67;61.87
7168;BME280;3625;51.762;14.320;2024-03-07T11:30:25;101716.81;;;6.68;63.26
7168;BME280;3625;51.762;14.320;2024-03-07T11:32:54;101727.72;;;6.97;64.93
7168;BME280;3625;51.762;14.320;2024-03-07T11:35:32;101733.66;;;6.80;61.96
7168;BME280;3625;51.762;14.320;2024-03-07T11:38:07;101724.56;;;6.59;62.52
7168;BME280;3625;51.762;14.320;2024-03-07T11:40:47;101711.47;;;6.62;62.62
7168;BME280;3625;51.762;14.320;2024-03-07T11:43:18;101708.94;;;6.69;64.77
7168;BME280;3625;51.762;14.320;2024-03-07T11:45:47;101713.41;;;6.75;61.82
7168;BME280;3625;51.762;14.320;2024-03-07T11:48:20;101707.34;;;6.80;60.46
7168;BME280;3625;51.762;14.320;2024-03-07T11:50:49;101704.81;;;6.88;59.19
7168;BME280;3625;51.762;14.320;2024-03-07T11:53:18;101711.00;;;6.93;58.02
7168;BME280;3625;51.762;14.320;2024-03-07T11:55:48;101697.84;;;6.93;58.04
7168;BME280;3625;51.762;14.320;2024-03-07T11:58:19;101697.13;;;7.05;57.70
7168;BME280;3625;51.762;14.320;2024-03-07T12:00:51;101694.75;;;7.26;58.22
7168;BME280;3625;51.762;14.320;2024-03-07T12:03:21;101686.88;;;7.26;58.43
7168;BME280;3625;51.762;14.320;2024-03-07T12:05:51;101684.31;;;7.35;57.78
7168;BME280;3625;51.762;14.320;2024-03-07T12:08:20;101685.50;;;7.65;57.37
7168;BME280;3625;51.762;14.320;2024-03-07T12:10:54;101689.84;;;7.60;55.71
7168;BME280;3625;51.762;14.320;2024-03-07T12:13:27;101680.03;;;7.45;56.14
7168;BME280;3625;51.762;14.320;2024-03-07T12:15:56;101676.47;;;7.40;57.77
7168;BME280;3625;51.762;14.320;2024-03-07T12:18:26;101676.53;;;7.47;57.32
7168;BME280;3625;51.762;14.320;2024-03-07T12:20:56;101670.22;;;7.30;57.57
7168;BME280;3625;51.762;14.320;2024-03-07T12:23:26;101672.03;;;7.37;57.05
7168;BME280;3625;51.762;14.320;2024-03-07T12:26:04;101672.84;;;7.30;55.06
7168;BME280;3625;51.762;14.320;2024-03-07T12:28:33;101665.88;;;7.35;55.22
7168;BME280;3625;51.762;14.320;2024-03-07T12:31:03;101666.66;;;7.27;56.30
7168;BME280;3625;51.762;14.320;2024-03-07T12:33:43;101665.75;;;7.22;56.77
7168;BME280;3625;51.762;14.320;2024-03-07T12:36:19;101661.38;;;7.22;57.04
7168;BME280;3625;51.762;14.320;2024-03-07T12:38:53;101670.16;;;7.24;57.58
7168;BME280;3625;51.762;14.320;2024-03-07T12:41:25;101664.63;;;7.00;56.52
7168;BME280;3625;51.762;14.320;2024-03-07T12:43:54;101667.31;;;7.06;57.44
7168;BME280;3625;51.762;14.320;2024-03-07T12:46:25;101656.97;;;7.21;54.69
7168;BME280;3625;51.762;14.320;2024-03-07T12:48:55;101662.38;;;7.33;54.62
7168;BME280;3625;51.762;14.320;2024-03-07T12:51:25;101659.84;;;7.42;54.21
7168;BME280;3625;51.762;14.320;2024-03-07T12:53:54;101656.31;;;7.42;53.77
7168;BME280;3625;51.762;14.320;2024-03-07T12:56:24;101653.66;;;7.40;52.38
7168;BME280;3625;51.762;14.320;2024-03-07T12:58:54;101654.63;;;7.48;53.19
7168;BME280;3625;51.762;14.320;2024-03-07T13:01:27;101657.25;;;7.48;52.42
7168;BME280;3625;51.762;14.320;2024-03-07T13:03:56;101653.50;;;7.25;52.82
7168;BME280;3625;51.762;14.320;2024-03-07T13:06:24;101647.44;;;7.35;53.26
7168;BME280;3625;51.762;14.320;2024-03-07T13:08:57;101661.47;;;7.31;53.01
7168;BME280;3625;51.762;14.320;2024-03-07T13:11:27;101649.22;;;7.33;53.02
7168;BME280;3625;51.762;14.320;2024-03-07T13:13:59;101644.84;;;7.38;53.32
7168;BME280;3625;51.762;14.320;2024-03-07T13:16:28;101650.34;;;7.60;53.77
7168;BME280;3625;51.762;14.320;2024-03-07T13:18:59;101644.13;;;7.53;53.94